createdAt,value
2018-07-12T00:03:32.192Z,8.40
2018-07-12T00:08:33.416Z,10.33
2018-07-12T00:13:34.669Z,8.83
2018-07-12T00:18:35.900Z,6.80
2018-07-12T00:23:37.107Z,11.30
2018-07-12T00:28:38.363Z,8.67
2018-07-12T00:33:39.598Z,9.07
2018-07-12T00:38:40.859Z,8.87
2018-07-12T00:43:42.150Z,11.97
2018-07-12T00:48:43.394Z,9.53
2018-07-12T00:53:44.647Z,11.20
2018-07-12T00:58:45.865Z,9.37
2018-07-12T01:03:47.139Z,9.37
2018-07-12T01:08:48.361Z,8.30
2018-07-12T01:13:49.708Z,9.00
2018-07-12T01:18:50.916Z,8.13
2018-07-12T01:23:52.160Z,11.60
2018-07-12T01:28:53.406Z,11.40
2018-07-12T01:33:55.066Z,11.80
2018-07-12T01:38:56.300Z,9.97
2018-07-12T01:43:57.545Z,10.10
2018-07-12T01:48:58.728Z,9.13
2018-07-12T01:53:59.991Z,10.30
2018-07-12T01:59:01.222Z,9.03
2018-07-12T02:04:02.434Z,9.80
2018-07-12T02:09:04.171Z,10.73
2018-07-12T02:14:05.409Z,10.40
2018-07-12T02:19:06.641Z,13.73
2018-07-12T02:24:07.851Z,8.37
2018-07-12T02:29:09.096Z,10.20
2018-07-12T02:34:10.361Z,12.83
2018-07-12T02:39:11.568Z,13.93
2018-07-12T02:44:12.807Z,15.17
2018-07-12T02:49:14.357Z,11.23
2018-07-12T02:54:15.588Z,12.43
2018-07-12T02:59:16.827Z,11.23
2018-07-12T03:04:18.070Z,18.67
2018-07-12T03:09:19.317Z,17.87
2018-07-12T03:14:20.557Z,20.30
2018-07-12T03:19:21.754Z,15.50
2018-07-12T03:24:23.001Z,21.77
2018-07-12T03:29:24.221Z,15.70
2018-07-12T03:34:25.463Z,15.30
2018-07-12T03:39:26.697Z,15.07
2018-07-12T03:44:27.956Z,17.33
2018-07-12T03:49:29.199Z,15.47
2018-07-12T03:54:30.462Z,17.90
2018-07-12T03:59:31.704Z,17.23
2018-07-12T04:04:32.929Z,15.90
2018-07-12T04:09:34.159Z,17.17
2018-07-12T04:14:35.391Z,13.43
2018-07-12T04:19:36.609Z,16.77
2018-07-12T04:24:37.855Z,16.57
2018-07-12T04:29:39.071Z,15.20
2018-07-12T04:34:40.352Z,12.80
2018-07-12T04:39:41.594Z,12.93
2018-07-12T04:44:42.833Z,13.90
2018-07-12T04:49:44.069Z,15.50
2018-07-12T04:54:45.300Z,11.17
2018-07-12T04:59:46.564Z,11.03
2018-07-12T05:04:47.792Z,12.30
2018-07-12T05:09:49.029Z,12.73
2018-07-12T05:14:50.233Z,10.63
2018-07-12T05:19:51.452Z,11.43
2018-07-12T05:24:52.681Z,9.23
2018-07-12T05:29:53.895Z,19.23
2018-07-12T05:34:55.189Z,13.10
2018-07-12T05:39:57.355Z,12.37
2018-07-12T05:44:59.536Z,10.00
2018-07-12T05:50:01.681Z,9.57
2018-07-12T05:55:03.903Z,12.20
2018-07-12T06:00:06.088Z,11.23
2018-07-12T06:05:08.250Z,7.00
2018-07-12T06:10:10.399Z,6.93
2018-07-12T06:15:12.537Z,6.00
2018-07-12T06:20:14.740Z,6.73
2018-07-12T06:25:16.970Z,6.80
2018-07-12T06:30:19.145Z,8.70
2018-07-12T06:35:21.308Z,8.37
2018-07-12T06:40:23.463Z,6.33
2018-07-12T06:45:26.374Z,7.63
2018-07-12T06:50:28.545Z,5.60
2018-07-12T06:55:30.766Z,9.13
2018-07-12T07:00:32.982Z,7.13
2018-07-12T07:05:35.160Z,7.27
2018-07-12T07:10:37.398Z,7.10
2018-07-12T07:15:39.565Z,8.93
2018-07-12T07:20:41.771Z,8.10
2018-07-12T07:25:44.061Z,7.57
2018-07-12T07:30:46.226Z,6.57
2018-07-12T07:35:48.436Z,6.47
2018-07-12T07:40:51.122Z,6.47
2018-07-12T07:45:53.302Z,6.03
2018-07-12T07:50:55.481Z,5.13
2018-07-12T07:55:57.994Z,6.30
2018-07-12T08:01:00.433Z,5.37
2018-07-12T08:06:02.649Z,10.20
2018-07-12T08:11:04.854Z,7.00
2018-07-12T08:16:07.037Z,4.93
2018-07-12T08:21:12.562Z,4.90
2018-07-12T08:26:14.787Z,9.50
2018-07-12T08:31:16.976Z,5.90
2018-07-12T08:36:19.176Z,3.97
2018-07-12T08:41:21.401Z,5.27
2018-07-12T08:46:23.630Z,3.30
2018-07-12T08:51:25.830Z,3.20
2018-07-12T08:56:28.105Z,5.60
2018-07-12T09:01:30.296Z,3.40
2018-07-12T09:06:32.475Z,9.83
2018-07-12T09:11:34.959Z,3.67
2018-07-12T09:16:37.159Z,3.37
2018-07-12T09:21:39.423Z,3.43
2018-07-12T09:26:41.608Z,5.47
2018-07-12T09:31:43.801Z,4.00
2018-07-12T09:36:46.183Z,5.57
2018-07-12T09:41:48.381Z,8.93
2018-07-12T09:46:50.559Z,8.03
2018-07-12T09:51:52.713Z,3.93
2018-07-12T09:57:06.544Z,3.83
2018-07-12T10:02:14.571Z,2.93
2018-07-12T10:07:22.450Z,5.90
2018-07-12T10:12:32.044Z,3.17
2018-07-12T10:17:40.207Z,5.17
2018-07-12T10:22:42.390Z,3.47
2018-07-12T10:27:44.609Z,4.57
2018-07-12T10:32:46.784Z,3.10
2018-07-12T10:37:48.962Z,3.07
2018-07-12T10:42:51.167Z,3.20
2018-07-12T10:47:53.333Z,6.90
2018-07-12T10:52:55.525Z,3.00
2018-07-12T10:57:57.935Z,3.50
2018-07-12T11:03:00.135Z,9.23
2018-07-12T11:08:02.311Z,4.37
2018-07-12T11:13:11.655Z,3.90
2018-07-12T11:18:13.917Z,4.80
2018-07-12T11:23:16.131Z,5.10
2018-07-12T11:28:18.334Z,4.93
2018-07-12T11:33:40.212Z,4.20
2018-07-12T11:38:43.367Z,3.70
2018-07-12T11:43:45.566Z,3.00
2018-07-12T11:48:47.789Z,5.80
2018-07-12T11:53:49.947Z,3.93
2018-07-12T11:58:52.192Z,2.97
2018-07-12T12:03:54.402Z,4.53
2018-07-12T12:08:56.620Z,4.20
2018-07-12T12:13:58.777Z,3.10
2018-07-12T12:19:00.980Z,2.47
2018-07-12T12:24:03.169Z,3.63
2018-07-12T12:29:05.347Z,6.90
2018-07-12T12:34:07.557Z,2.90
2018-07-12T12:39:09.759Z,3.60
2018-07-12T12:44:11.965Z,4.23
2018-07-12T12:49:14.179Z,2.50
2018-07-12T12:54:16.391Z,3.40
2018-07-12T12:59:18.583Z,3.00
2018-07-12T13:04:20.768Z,5.30
2018-07-12T13:09:22.963Z,2.97
2018-07-12T13:14:25.189Z,3.03
2018-07-12T13:19:27.346Z,4.47
2018-07-12T13:24:29.540Z,2.07
2018-07-12T13:29:31.706Z,2.60
2018-07-12T13:34:33.872Z,2.40
2018-07-12T13:39:36.101Z,2.40
2018-07-12T13:44:38.253Z,2.80
2018-07-12T13:49:40.679Z,2.77
2018-07-12T13:54:42.830Z,4.10
2018-07-12T13:59:45.047Z,4.20
2018-07-12T14:04:47.316Z,10.70
2018-07-12T14:09:49.553Z,5.97
2018-07-12T14:14:51.749Z,5.27
2018-07-12T14:19:53.926Z,9.20
2018-07-12T14:24:56.227Z,6.57
2018-07-12T14:29:58.465Z,7.30
2018-07-12T14:35:00.676Z,6.23
2018-07-12T14:40:02.886Z,5.40
2018-07-12T14:45:05.086Z,6.33
2018-07-12T14:50:07.295Z,4.27
2018-07-12T14:55:09.491Z,2.73
2018-07-12T15:00:11.710Z,3.10
2018-07-12T15:05:13.887Z,4.37
2018-07-12T15:10:16.121Z,8.70
2018-07-12T15:15:18.303Z,3.17
2018-07-12T15:20:20.487Z,3.53
2018-07-12T15:25:22.636Z,3.03
2018-07-12T15:30:25.064Z,4.23
2018-07-12T15:35:27.304Z,5.27
2018-07-12T15:40:29.482Z,4.10
2018-07-12T15:45:31.654Z,3.73
2018-07-12T15:50:33.857Z,7.17
2018-07-12T15:55:36.050Z,8.97
2018-07-12T16:00:38.295Z,8.70
2018-07-12T16:05:40.439Z,5.93
2018-07-12T16:10:42.652Z,6.20
2018-07-12T16:15:44.868Z,4.63
2018-07-12T16:20:47.071Z,4.30
2018-07-12T16:25:50.148Z,7.37
2018-07-12T16:30:52.323Z,5.93
2018-07-12T16:35:54.542Z,4.93
2018-07-12T16:40:56.750Z,8.90
2018-07-12T16:45:58.934Z,6.30
2018-07-12T16:51:01.126Z,3.43
2018-07-12T16:56:03.355Z,3.30
2018-07-12T17:01:05.587Z,4.13
2018-07-12T17:06:07.818Z,4.93
2018-07-12T17:11:10.029Z,3.17
2018-07-12T17:16:12.232Z,5.73
2018-07-12T17:21:14.448Z,5.07
2018-07-12T17:26:16.626Z,4.77
2018-07-12T17:31:18.812Z,6.07
2018-07-12T17:36:20.995Z,6.20
2018-07-12T17:41:23.230Z,6.50
2018-07-12T17:46:25.416Z,4.47
2018-07-12T17:51:27.687Z,6.83
2018-07-12T17:56:29.906Z,5.47
2018-07-12T18:01:32.350Z,5.10
2018-07-12T18:06:34.572Z,7.43
2018-07-12T18:11:36.816Z,5.70
2018-07-12T18:16:38.999Z,6.80
2018-07-12T18:21:41.217Z,5.50
2018-07-12T18:26:43.460Z,12.13
2018-07-12T18:31:45.661Z,4.43
2018-07-12T18:36:48.028Z,8.77
2018-07-12T18:41:50.228Z,7.20
2018-07-12T18:46:52.905Z,8.87
2018-07-12T18:51:55.327Z,5.83
2018-07-12T18:56:57.547Z,8.10
2018-07-12T19:01:59.887Z,7.57
2018-07-12T19:07:02.175Z,8.20
2018-07-12T19:12:04.513Z,5.67
2018-07-12T19:17:06.823Z,5.90
2018-07-12T19:22:09.131Z,9.53
2018-07-12T19:27:11.317Z,7.80
2018-07-12T19:32:13.828Z,9.63
2018-07-12T19:37:16.113Z,11.30
2018-07-12T19:42:18.384Z,7.80
2018-07-12T19:47:20.723Z,9.30
2018-07-12T19:52:22.995Z,11.00
2018-07-12T19:57:25.173Z,15.90
2018-07-12T20:02:27.484Z,9.53
2018-07-12T20:07:29.801Z,14.53
2018-07-12T20:12:32.030Z,19.13
2018-07-12T20:17:34.373Z,18.63
2018-07-12T20:22:36.615Z,23.13
2018-07-12T20:27:38.845Z,16.43
2018-07-12T20:32:41.589Z,24.10
2018-07-12T20:37:43.857Z,17.40
2018-07-12T20:42:46.045Z,14.00
2018-07-12T20:47:48.307Z,19.23
2018-07-12T20:52:50.539Z,14.50
2018-07-12T20:57:52.711Z,14.30
2018-07-12T21:02:55.010Z,16.13
2018-07-12T21:07:57.192Z,16.17
2018-07-12T21:12:59.436Z,17.73
2018-07-12T21:18:01.645Z,29.10
2018-07-12T21:23:04.028Z,15.20
2018-07-12T21:28:06.296Z,20.30
2018-07-12T21:33:08.917Z,23.53
2018-07-12T21:38:11.117Z,21.83
2018-07-12T21:43:13.282Z,20.03
2018-07-12T21:48:15.470Z,20.77
2018-07-12T21:53:17.620Z,14.90
2018-07-12T21:58:19.848Z,28.43
2018-07-12T22:03:22.329Z,15.83
2018-07-12T22:08:25.814Z,17.53
2018-07-12T22:13:29.548Z,22.47
2018-07-12T22:18:31.806Z,21.47
2018-07-12T22:23:34.073Z,18.37
2018-07-12T22:28:36.243Z,21.53
2018-07-12T22:33:38.414Z,22.80
2018-07-12T22:38:40.589Z,19.20
2018-07-12T22:43:42.790Z,22.50
2018-07-12T22:48:44.968Z,19.33
2018-07-12T22:53:47.134Z,26.87
2018-07-12T22:58:49.607Z,28.80
2018-07-12T23:03:51.913Z,19.90
2018-07-12T23:08:54.099Z,22.10
2018-07-12T23:13:56.496Z,21.03
2018-07-12T23:18:58.690Z,21.00
2018-07-12T23:24:00.875Z,18.57
2018-07-12T23:29:03.123Z,21.33
2018-07-12T23:34:05.311Z,19.17
2018-07-12T23:39:08.132Z,24.50
2018-07-12T23:44:10.364Z,21.90
2018-07-12T23:49:12.487Z,17.23
2018-07-12T23:54:14.711Z,33.90
2018-07-12T23:59:17.079Z,20.17
